Airfield :
LOGIN :

Register | Disclaimer

   EN    FR    IT 

 










Legend :    VFR   Marginal VFR   IFR   Intensive IFR   Very Intensive IFR
Visi :
Ceiling :
>= 8 km
>= 3000ft
5 to 8 km
1000 to 3000 ft
1500m to 5 km
500 to 1000 ft
800 to 1500m
200 to 500 ft
< 800m
< 200 ft
Symbols :   Thunderstorms  Fog  Heavy snow  Heavy precipitations  Wind > 20 kt
SIGMETs :     Misc.  Thunderstorms  Icing  Turbulence  Mountain Waves  Volcanic Ashes







- Airport Elevation : 72 ft
- IATA code : UDE


EHVK - Volkel Airbase

CURRENT METAR :
  • 221155Z AUTO 11015KT 060V160 9999 NCD 25/03 Q1008 BLU

EXPIRED METARs :
  • 221125Z AUTO 13011KT 060V150 9999 BKN320 25/03 Q1008 BLU
  • 221055Z AUTO 10012KT 060V170 9999 NCD 24/03 Q1009 BLU
  • 221025Z AUTO 09011KT 070V150 9999 NCD 23/04 Q1009 BLU
  • 220955Z AUTO 09008KT 050V120 9999 BKN340 23/05 Q1009 BLU
  • 220925Z AUTO 11009KT 050V140 9999 OVC180 22/04 Q1010 BLU

TAF TAF EHVK
Valid from the 22 at 09:00 until the 22 at 21:00 UTC


220819Z 2209/2221 10009KT CAVOK
BECMG 2209/2212 12012G22KT
No reported NOTAMs for that airfield.



MET'MAP, your aeronautical weather chart ! - Copyright ORBIFLY December 2007 - Disclaimer

ORBIFLY MET'MAP TEAM :

Programming & Development : Alexandra Zaïnal
Concept & Development : Baudouin d'Aumeries
Co-Development & Prog : Marc-Olivier Méhu
Technical & hardware support : Manuel Goepfert

Contact : metmap@orbifly.com




SOURCES & CREDITS :

   NOAA